sensor_id;sensor_type;location;lat;lon;timestamp;temperature;humidity
37460;DHT22;23318;50.966;5.284;2023-04-06T00:01:31;5.50;99.90
37460;DHT22;23318;50.966;5.284;2023-04-06T00:03:57;5.40;99.90
37460;DHT22;23318;50.966;5.284;2023-04-06T00:06:23;5.30;99.90
37460;DHT22;23318;50.966;5.284;2023-04-06T00:08:48;5.10;99.90
37460;DHT22;23318;50.966;5.284;2023-04-06T00:11:14;4.00;99.90
37460;DHT22;23318;50.966;5.284;2023-04-06T00:13:42;4.20;99.90
37460;DHT22;23318;50.966;5.284;2023-04-06T00:16:07;4.70;99.90
37460;DHT22;23318;50.966;5.284;2023-04-06T00:18:33;5.00;99.90
37460;DHT22;23318;50.966;5.284;2023-04-06T00:20:59;5.00;99.90
37460;DHT22;23318;50.966;5.284;2023-04-06T00:23:25;5.00;99.90
37460;DHT22;23318;50.966;5.284;2023-04-06T00:25:50;4.90;99.90
37460;DHT22;23318;50.966;5.284;2023-04-06T00:28:16;5.00;99.90
37460;DHT22;23318;50.966;5.284;2023-04-06T00:30:42;5.00;99.90
37460;DHT22;23318;50.966;5.284;2023-04-06T00:33:08;4.90;99.90
37460;DHT22;23318;50.966;5.284;2023-04-06T00:35:34;4.90;99.90
37460;DHT22;23318;50.966;5.284;2023-04-06T00:38:00;4.90;99.90
37460;DHT22;23318;50.966;5.284;2023-04-06T00:40:25;4.90;99.90
37460;DHT22;23318;50.966;5.284;2023-04-06T00:42:54;4.90;99.90
37460;DHT22;23318;50.966;5.284;2023-04-06T00:45:20;5.00;99.90
37460;DHT22;23318;50.966;5.284;2023-04-06T00:47:45;5.10;99.90
37460;DHT22;23318;50.966;5.284;2023-04-06T00:50:11;5.00;99.90
37460;DHT22;23318;50.966;5.284;2023-04-06T00:52:37;5.10;99.90
37460;DHT22;23318;50.966;5.284;2023-04-06T00:55:03;5.00;99.90
37460;DHT22;23318;50.966;5.284;2023-04-06T00:57:29;5.00;99.90
37460;DHT22;23318;50.966;5.284;2023-04-06T00:59:56;4.90;99.90
37460;DHT22;23318;50.966;5.284;2023-04-06T01:02:21;4.80;99.90
37460;DHT22;23318;50.966;5.284;2023-04-06T01:04:48;4.70;99.90
37460;DHT22;23318;50.966;5.284;2023-04-06T01:07:14;4.70;99.90
37460;DHT22;23318;50.966;5.284;2023-04-06T01:09:39;4.60;99.90
37460;DHT22;23318;50.966;5.284;2023-04-06T01:12:07;4.60;99.90
37460;DHT22;23318;50.966;5.284;2023-04-06T01:14:32;4.40;99.90
37460;DHT22;23318;50.966;5.284;2023-04-06T01:17:00;4.40;99.90
37460;DHT22;23318;50.966;5.284;2023-04-06T01:19:26;4.50;99.90
37460;DHT22;23318;50.966;5.284;2023-04-06T01:21:51;4.50;99.90
37460;DHT22;23318;50.966;5.284;2023-04-06T01:24:19;4.50;99.90
37460;DHT22;23318;50.966;5.284;2023-04-06T01:26:45;4.50;99.90
37460;DHT22;23318;50.966;5.284;2023-04-06T01:29:11;4.40;99.90
37460;DHT22;23318;50.966;5.284;2023-04-06T01:31:37;4.40;99.90
37460;DHT22;23318;50.966;5.284;2023-04-06T01:34:02;4.40;99.90
37460;DHT22;23318;50.966;5.284;2023-04-06T01:36:28;4.40;99.90
37460;DHT22;23318;50.966;5.284;2023-04-06T01:38:54;4.30;99.90
37460;DHT22;23318;50.966;5.284;2023-04-06T01:41:20;4.40;99.90
37460;DHT22;23318;50.966;5.284;2023-04-06T01:43:47;4.50;99.90
37460;DHT22;23318;50.966;5.284;2023-04-06T01:46:13;4.50;99.90
37460;DHT22;23318;50.966;5.284;2023-04-06T01:48:38;4.60;99.90
37460;DHT22;23318;50.966;5.284;2023-04-06T01:51:04;4.70;99.90
37460;DHT22;23318;50.966;5.284;2023-04-06T01:53:30;4.60;99.90
37460;DHT22;23318;50.966;5.284;2023-04-06T01:55:56;4.60;99.90
37460;DHT22;23318;50.966;5.284;2023-04-06T01:58:21;4.60;99.90
37460;DHT22;23318;50.966;5.284;2023-04-06T02:00:47;4.60;99.90
37460;DHT22;23318;50.966;5.284;2023-04-06T02:03:13;4.50;99.90
37460;DHT22;23318;50.966;5.284;2023-04-06T02:05:40;4.60;99.90
37460;DHT22;23318;50.966;5.284;2023-04-06T02:08:06;4.60;99.90
37460;DHT22;23318;50.966;5.284;2023-04-06T02:10:33;4.60;99.90
37460;DHT22;23318;50.966;5.284;2023-04-06T02:12:59;4.60;99.90
37460;DHT22;23318;50.966;5.284;2023-04-06T02:15:25;4.70;99.90
37460;DHT22;23318;50.966;5.284;2023-04-06T02:17:51;4.80;99.90
37460;DHT22;23318;50.966;5.284;2023-04-06T02:20:17;4.90;99.90
37460;DHT22;23318;50.966;5.284;2023-04-06T02:22:43;4.90;99.90
37460;DHT22;23318;50.966;5.284;2023-04-06T02:25:09;5.00;99.90
37460;DHT22;23318;50.966;5.284;2023-04-06T02:27:35;5.00;99.90
37460;DHT22;23318;50.966;5.284;2023-04-06T02:30:02;5.00;99.90
37460;DHT22;23318;50.966;5.284;2023-04-06T02:32:27;5.00;99.90
37460;DHT22;23318;50.966;5.284;2023-04-06T02:34:53;5.00;99.90
37460;DHT22;23318;50.966;5.284;2023-04-06T02:37:19;5.10;99.90
37460;DHT22;23318;50.966;5.284;2023-04-06T02:39:45;5.10;99.90
37460;DHT22;23318;50.966;5.284;2023-04-06T02:42:10;5.10;99.90
37460;DHT22;23318;50.966;5.284;2023-04-06T02:44:36;5.10;99.90
37460;DHT22;23318;50.966;5.284;2023-04-06T02:47:02;5.20;99.90
37460;DHT22;23318;50.966;5.284;2023-04-06T02:49:27;5.20;99.90
37460;DHT22;23318;50.966;5.284;2023-04-06T02:51:54;5.20;99.90
37460;DHT22;23318;50.966;5.284;2023-04-06T02:54:20;5.20;99.90
37460;DHT22;23318;50.966;5.284;2023-04-06T02:56:45;5.20;99.90
37460;DHT22;23318;50.966;5.284;2023-04-06T02:59:11;5.20;99.90
37460;DHT22;23318;50.966;5.284;2023-04-06T03:01:37;5.20;99.90
37460;DHT22;23318;50.966;5.284;2023-04-06T03:04:03;5.20;99.90
37460;DHT22;23318;50.966;5.284;2023-04-06T03:06:28;5.20;99.90
37460;DHT22;23318;50.966;5.284;2023-04-06T03:08:54;5.10;99.90
37460;DHT22;23318;50.966;5.284;2023-04-06T03:11:20;5.10;99.90
37460;DHT22;23318;50.966;5.284;2023-04-06T03:13:46;5.20;99.90
37460;DHT22;23318;50.966;5.284;2023-04-06T03:16:11;5.20;99.90
37460;DHT22;23318;50.966;5.284;2023-04-06T03:18:37;5.30;99.90
37460;DHT22;23318;50.966;5.284;2023-04-06T03:21:03;5.20;99.90
37460;DHT22;23318;50.966;5.284;2023-04-06T03:23:28;5.20;99.90
37460;DHT22;23318;50.966;5.284;2023-04-06T03:25:54;5.20;99.90
37460;DHT22;23318;50.966;5.284;2023-04-06T03:28:20;5.30;99.90
37460;DHT22;23318;50.966;5.284;2023-04-06T03:30:46;5.40;99.90
37460;DHT22;23318;50.966;5.284;2023-04-06T03:33:12;5.50;99.90
37460;DHT22;23318;50.966;5.284;2023-04-06T03:35:37;5.50;99.90
37460;DHT22;23318;50.966;5.284;2023-04-06T03:38:04;5.50;99.90
37460;DHT22;23318;50.966;5.284;2023-04-06T03:40:33;5.40;99.90
37460;DHT22;23318;50.966;5.284;2023-04-06T03:42:59;5.40;99.90
37460;DHT22;23318;50.966;5.284;2023-04-06T03:45:24;5.50;99.90
37460;DHT22;23318;50.966;5.284;2023-04-06T03:47:50;5.50;99.90
37460;DHT22;23318;50.966;5.284;2023-04-06T03:50:16;5.40;99.90
37460;DHT22;23318;50.966;5.284;2023-04-06T03:52:41;5.50;99.90
37460;DHT22;23318;50.966;5.284;2023-04-06T03:55:07;5.50;99.90
37460;DHT22;23318;50.966;5.284;2023-04-06T03:57:33;5.50;99.90
37460;DHT22;23318;50.966;5.284;2023-04-06T03:59:59;5.60;99.90
37460;DHT22;23318;50.966;5.284;2023-04-06T04:02:25;5.70;99.90
37460;DHT22;23318;50.966;5.284;2023-04-06T04:04:50;5.80;99.90
37460;DHT22;23318;50.966;5.284;2023-04-06T04:07:16;5.80;99.90
37460;DHT22;23318;50.966;5.284;2023-04-06T04:09:42;5.70;99.90
37460;DHT22;23318;50.966;5.284;2023-04-06T04:12:07;5.80;99.90
37460;DHT22;23318;50.966;5.284;2023-04-06T04:14:33;5.80;99.90
37460;DHT22;23318;50.966;5.284;2023-04-06T04:16:59;5.80;99.90
37460;DHT22;23318;50.966;5.284;2023-04-06T04:19:24;5.80;99.90
37460;DHT22;23318;50.966;5.284;2023-04-06T04:21:50;5.80;99.90
37460;DHT22;23318;50.966;5.284;2023-04-06T04:24:16;5.70;99.90
37460;DHT22;23318;50.966;5.284;2023-04-06T04:26:41;5.60;99.90
37460;DHT22;23318;50.966;5.284;2023-04-06T04:29:07;5.50;99.90
37460;DHT22;23318;50.966;5.284;2023-04-06T04:31:33;5.40;99.90
37460;DHT22;23318;50.966;5.284;2023-04-06T04:33:59;5.40;99.90
37460;DHT22;23318;50.966;5.284;2023-04-06T04:36:25;5.40;99.90
37460;DHT22;23318;50.966;5.284;2023-04-06T04:38:54;5.40;99.90
37460;DHT22;23318;50.966;5.284;2023-04-06T04:41:20;5.50;99.90
37460;DHT22;23318;50.966;5.284;2023-04-06T04:43:46;5.50;99.90
37460;DHT22;23318;50.966;5.284;2023-04-06T04:46:11;5.40;99.90
37460;DHT22;23318;50.966;5.284;2023-04-06T04:48:37;5.40;99.90
37460;DHT22;23318;50.966;5.284;2023-04-06T04:51:04;5.40;99.90
37460;DHT22;23318;50.966;5.284;2023-04-06T04:53:30;5.40;99.90
37460;DHT22;23318;50.966;5.284;2023-04-06T04:55:55;5.40;99.90
37460;DHT22;23318;50.966;5.284;2023-04-06T04:58:21;5.50;99.90
37460;DHT22;23318;50.966;5.284;2023-04-06T05:00:47;5.50;99.90
37460;DHT22;23318;50.966;5.284;2023-04-06T05:03:21;5.60;99.90
37460;DHT22;23318;50.966;5.284;2023-04-06T05:05:48;5.60;99.90
37460;DHT22;23318;50.966;5.284;2023-04-06T05:08:13;5.60;99.90
37460;DHT22;23318;50.966;5.284;2023-04-06T05:10:39;5.60;99.90
37460;DHT22;23318;50.966;5.284;2023-04-06T05:13:05;5.70;99.90
37460;DHT22;23318;50.966;5.284;2023-04-06T05:15:31;5.80;99.90
37460;DHT22;23318;50.966;5.284;2023-04-06T05:17:57;5.90;99.90
37460;DHT22;23318;50.966;5.284;2023-04-06T05:20:23;5.90;99.90
37460;DHT22;23318;50.966;5.284;2023-04-06T05:22:49;6.00;99.90
37460;DHT22;23318;50.966;5.284;2023-04-06T05:25:14;5.90;99.90
37460;DHT22;23318;50.966;5.284;2023-04-06T05:27:40;5.90;99.90
37460;DHT22;23318;50.966;5.284;2023-04-06T05:30:07;6.00;99.90
37460;DHT22;23318;50.966;5.284;2023-04-06T05:32:33;6.00;99.90
37460;DHT22;23318;50.966;5.284;2023-04-06T05:34:59;6.00;99.90
37460;DHT22;23318;50.966;5.284;2023-04-06T05:37:25;6.20;99.90
37460;DHT22;23318;50.966;5.284;2023-04-06T05:39:50;6.20;99.90
37460;DHT22;23318;50.966;5.284;2023-04-06T05:42:16;6.30;99.90
37460;DHT22;23318;50.966;5.284;2023-04-06T05:44:42;6.40;99.90
37460;DHT22;23318;50.966;5.284;2023-04-06T05:47:08;6.40;99.90
37460;DHT22;23318;50.966;5.284;2023-04-06T05:49:34;6.50;99.90
37460;DHT22;23318;50.966;5.284;2023-04-06T05:52:00;6.50;99.90
37460;DHT22;23318;50.966;5.284;2023-04-06T05:54:26;6.60;99.90
37460;DHT22;23318;50.966;5.284;2023-04-06T05:56:52;6.60;99.90
37460;DHT22;23318;50.966;5.284;2023-04-06T05:59:18;6.70;99.90
37460;DHT22;23318;50.966;5.284;2023-04-06T06:01:43;6.70;99.90
37460;DHT22;23318;50.966;5.284;2023-04-06T06:04:09;6.80;99.90
37460;DHT22;23318;50.966;5.284;2023-04-06T06:06:35;6.90;99.90
37460;DHT22;23318;50.966;5.284;2023-04-06T06:09:02;6.90;99.90
37460;DHT22;23318;50.966;5.284;2023-04-06T06:11:29;6.90;99.90
37460;DHT22;23318;50.966;5.284;2023-04-06T06:13:55;7.00;99.90
37460;DHT22;23318;50.966;5.284;2023-04-06T06:16:21;7.00;99.90
37460;DHT22;23318;50.966;5.284;2023-04-06T06:18:47;7.00;99.90
37460;DHT22;23318;50.966;5.284;2023-04-06T06:21:13;7.00;99.90
37460;DHT22;23318;50.966;5.284;2023-04-06T06:23:38;7.10;99.90
37460;DHT22;23318;50.966;5.284;2023-04-06T06:26:04;7.10;99.90
37460;DHT22;23318;50.966;5.284;2023-04-06T06:28:30;7.20;99.90
37460;DHT22;23318;50.966;5.284;2023-04-06T06:30:56;7.20;99.90
37460;DHT22;23318;50.966;5.284;2023-04-06T06:33:22;7.20;99.90
37460;DHT22;23318;50.966;5.284;2023-04-06T06:35:48;7.10;99.90
37460;DHT22;23318;50.966;5.284;2023-04-06T06:38:14;7.20;99.90
37460;DHT22;23318;50.966;5.284;2023-04-06T06:40:40;7.40;99.90
37460;DHT22;23318;50.966;5.284;2023-04-06T06:43:06;7.50;99.90
37460;DHT22;23318;50.966;5.284;2023-04-06T06:45:32;7.50;99.90
37460;DHT22;23318;50.966;5.284;2023-04-06T06:47:58;7.80;99.90
37460;DHT22;23318;50.966;5.284;2023-04-06T06:50:24;8.00;99.90
37460;DHT22;23318;50.966;5.284;2023-04-06T06:52:50;8.20;99.90
37460;DHT22;23318;50.966;5.284;2023-04-06T06:55:16;8.30;99.90
37460;DHT22;23318;50.966;5.284;2023-04-06T06:57:46;8.10;99.90
37460;DHT22;23318;50.966;5.284;2023-04-06T07:00:13;8.20;99.90
37460;DHT22;23318;50.966;5.284;2023-04-06T07:02:39;8.20;99.90
37460;DHT22;23318;50.966;5.284;2023-04-06T07:05:06;8.70;99.80
37460;DHT22;23318;50.966;5.284;2023-04-06T07:07:32;8.80;99.40
37460;DHT22;23318;50.966;5.284;2023-04-06T07:09:59;8.00;99.90
37460;DHT22;23318;50.966;5.284;2023-04-06T07:12:25;7.40;99.90
37460;DHT22;23318;50.966;5.284;2023-04-06T07:14:51;7.70;99.90
37460;DHT22;23318;50.966;5.284;2023-04-06T07:17:17;8.30;99.90
37460;DHT22;23318;50.966;5.284;2023-04-06T07:19:43;9.00;99.90
37460;DHT22;23318;50.966;5.284;2023-04-06T07:22:08;9.20;99.20
37460;DHT22;23318;50.966;5.284;2023-04-06T07:24:34;9.10;99.90
37460;DHT22;23318;50.966;5.284;2023-04-06T07:27:00;9.70;99.20
37460;DHT22;23318;50.966;5.284;2023-04-06T07:29:26;10.00;99.00
37460;DHT22;23318;50.966;5.284;2023-04-06T07:31:52;10.00;98.90
37460;DHT22;23318;50.966;5.284;2023-04-06T07:34:18;9.80;99.20
37460;DHT22;23318;50.966;5.284;2023-04-06T07:36:44;9.60;98.80
37460;DHT22;23318;50.966;5.284;2023-04-06T07:39:10;9.80;99.70
37460;DHT22;23318;50.966;5.284;2023-04-06T07:41:36;9.60;99.40
37460;DHT22;23318;50.966;5.284;2023-04-06T07:44:02;9.70;99.10
37460;DHT22;23318;50.966;5.284;2023-04-06T07:46:30;9.50;99.30
37460;DHT22;23318;50.966;5.284;2023-04-06T07:48:57;9.50;99.70
37460;DHT22;23318;50.966;5.284;2023-04-06T07:51:23;9.70;99.90
37460;DHT22;23318;50.966;5.284;2023-04-06T07:53:50;9.40;99.90
37460;DHT22;23318;50.966;5.284;2023-04-06T07:56:16;9.80;99.60
37460;DHT22;23318;50.966;5.284;2023-04-06T07:58:42;10.20;99.30
37460;DHT22;23318;50.966;5.284;2023-04-06T08:01:08;10.10;99.70
37460;DHT22;23318;50.966;5.284;2023-04-06T08:03:34;10.20;99.40
37460;DHT22;23318;50.966;5.284;2023-04-06T08:06:00;10.40;99.10
37460;DHT22;23318;50.966;5.284;2023-04-06T08:08:26;10.60;98.90
37460;DHT22;23318;50.966;5.284;2023-04-06T08:10:52;10.70;98.80
37460;DHT22;23318;50.966;5.284;2023-04-06T08:13:18;10.90;98.70
37460;DHT22;23318;50.966;5.284;2023-04-06T08:15:44;10.80;98.80
37460;DHT22;23318;50.966;5.284;2023-04-06T08:18:10;10.80;98.60
37460;DHT22;23318;50.966;5.284;2023-04-06T08:20:36;10.30;99.40
37460;DHT22;23318;50.966;5.284;2023-04-06T08:23:02;10.80;99.20
37460;DHT22;23318;50.966;5.284;2023-04-06T08:25:27;10.50;99.10
37460;DHT22;23318;50.966;5.284;2023-04-06T08:27:53;10.40;99.90
37460;DHT22;23318;50.966;5.284;2023-04-06T08:30:19;10.90;99.40
37460;DHT22;23318;50.966;5.284;2023-04-06T08:32:45;11.00;98.60
37460;DHT22;23318;50.966;5.284;2023-04-06T08:35:11;11.30;98.40
37460;DHT22;23318;50.966;5.284;2023-04-06T08:37:37;10.80;98.50
37460;DHT22;23318;50.966;5.284;2023-04-06T08:40:04;10.90;99.40
37460;DHT22;23318;50.966;5.284;2023-04-06T08:42:32;10.60;99.20
37460;DHT22;23318;50.966;5.284;2023-04-06T08:44:59;10.50;99.40
37460;DHT22;23318;50.966;5.284;2023-04-06T08:47:26;10.00;99.40
37460;DHT22;23318;50.966;5.284;2023-04-06T08:49:53;10.20;99.80
37460;DHT22;23318;50.966;5.284;2023-04-06T08:52:19;9.90;99.10
37460;DHT22;23318;50.966;5.284;2023-04-06T08:54:46;9.70;99.90
37460;DHT22;23318;50.966;5.284;2023-04-06T08:57:12;9.90;99.80
37460;DHT22;23318;50.966;5.284;2023-04-06T08:59:40;9.50;99.90
37460;DHT22;23318;50.966;5.284;2023-04-06T09:02:06;9.70;99.80
37460;DHT22;23318;50.966;5.284;2023-04-06T09:04:38;9.70;99.90
37460;DHT22;23318;50.966;5.284;2023-04-06T09:07:04;9.50;99.90
37460;DHT22;23318;50.966;5.284;2023-04-06T09:09:30;9.20;99.90
37460;DHT22;23318;50.966;5.284;2023-04-06T09:11:56;9.50;99.90
37460;DHT22;23318;50.966;5.284;2023-04-06T09:14:39;9.70;99.90
37460;DHT22;23318;50.966;5.284;2023-04-06T09:17:05;9.90;99.90
37460;DHT22;23318;50.966;5.284;2023-04-06T09:19:31;9.60;99.90
37460;DHT22;23318;50.966;5.284;2023-04-06T09:22:06;9.50;99.90
37460;DHT22;23318;50.966;5.284;2023-04-06T09:24:46;9.10;99.90
37460;DHT22;23318;50.966;5.284;2023-04-06T09:27:13;9.20;99.90
37460;DHT22;23318;50.966;5.284;2023-04-06T09:29:40;9.30;99.90
37460;DHT22;23318;50.966;5.284;2023-04-06T09:32:07;9.60;99.90
37460;DHT22;23318;50.966;5.284;2023-04-06T09:34:42;9.50;99.90
37460;DHT22;23318;50.966;5.284;2023-04-06T09:37:18;9.60;99.90
37460;DHT22;23318;50.966;5.284;2023-04-06T09:39:45;9.50;99.90
37460;DHT22;23318;50.966;5.284;2023-04-06T09:42:23;9.40;99.90
37460;DHT22;23318;50.966;5.284;2023-04-06T09:44:50;9.20;99.90
37460;DHT22;23318;50.966;5.284;2023-04-06T09:47:16;9.10;99.90
37460;DHT22;23318;50.966;5.284;2023-04-06T09:49:43;8.80;99.90
37460;DHT22;23318;50.966;5.284;2023-04-06T09:52:11;8.70;99.90
37460;DHT22;23318;50.966;5.284;2023-04-06T09:54:38;8.60;99.90
37460;DHT22;23318;50.966;5.284;2023-04-06T09:57:26;8.80;99.90
37460;DHT22;23318;50.966;5.284;2023-04-06T10:00:07;8.70;99.90
37460;DHT22;23318;50.966;5.284;2023-04-06T10:08:11;8.70;99.90
37460;DHT22;23318;50.966;5.284;2023-04-06T10:10:37;8.50;99.90
37460;DHT22;23318;50.966;5.284;2023-04-06T10:13:04;8.50;99.90
37460;DHT22;23318;50.966;5.284;2023-04-06T10:15:30;8.60;99.90
37460;DHT22;23318;50.966;5.284;2023-04-06T10:18:00;8.50;99.90
37460;DHT22;23318;50.966;5.284;2023-04-06T10:23:17;8.60;99.90
37460;DHT22;23318;50.966;5.284;2023-04-06T10:25:59;8.60;99.90
37460;DHT22;23318;50.966;5.284;2023-04-06T10:28:35;8.30;99.90
37460;DHT22;23318;50.966;5.284;2023-04-06T10:31:05;8.10;99.90
37460;DHT22;23318;50.966;5.284;2023-04-06T10:33:32;8.10;99.90
37460;DHT22;23318;50.966;5.284;2023-04-06T10:35:58;8.20;99.90
37460;DHT22;23318;50.966;5.284;2023-04-06T10:38:36;8.10;99.90
37460;DHT22;23318;50.966;5.284;2023-04-06T10:41:07;8.30;99.90
37460;DHT22;23318;50.966;5.284;2023-04-06T10:43:34;8.50;99.90
37460;DHT22;23318;50.966;5.284;2023-04-06T10:46:04;8.30;99.90
37460;DHT22;23318;50.966;5.284;2023-04-06T10:51:17;8.20;99.90
37460;DHT22;23318;50.966;5.284;2023-04-06T10:53:45;8.20;99.90
37460;DHT22;23318;50.966;5.284;2023-04-06T10:56:14;8.40;99.90
37460;DHT22;23318;50.966;5.284;2023-04-06T10:58:46;8.40;99.90
37460;DHT22;23318;50.966;5.284;2023-04-06T11:01:13;8.30;99.90
37460;DHT22;23318;50.966;5.284;2023-04-06T11:03:46;8.30;99.90
37460;DHT22;23318;50.966;5.284;2023-04-06T11:06:32;8.20;99.90
37460;DHT22;23318;50.966;5.284;2023-04-06T11:08:59;8.40;99.90
37460;DHT22;23318;50.966;5.284;2023-04-06T11:11:26;8.30;99.90
37460;DHT22;23318;50.966;5.284;2023-04-06T11:13:57;8.40;99.90
37460;DHT22;23318;50.966;5.284;2023-04-06T11:16:29;8.40;99.90
37460;DHT22;23318;50.966;5.284;2023-04-06T11:21:45;8.40;99.90
37460;DHT22;23318;50.966;5.284;2023-04-06T11:24:20;8.20;99.90
37460;DHT22;23318;50.966;5.284;2023-04-06T11:29:20;8.20;99.90
37460;DHT22;23318;50.966;5.284;2023-04-06T11:31:49;8.20;99.90
37460;DHT22;23318;50.966;5.284;2023-04-06T11:34:23;8.20;99.90
37460;DHT22;23318;50.966;5.284;2023-04-06T11:36:59;8.40;99.90
37460;DHT22;23318;50.966;5.284;2023-04-06T11:39:26;8.60;99.90
37460;DHT22;23318;50.966;5.284;2023-04-06T11:42:02;8.60;99.90
37460;DHT22;23318;50.966;5.284;2023-04-06T11:44:39;8.50;99.90
37460;DHT22;23318;50.966;5.284;2023-04-06T11:47:06;8.70;99.90
37460;DHT22;23318;50.966;5.284;2023-04-06T11:49:33;8.50;99.90
37460;DHT22;23318;50.966;5.284;2023-04-06T11:52:02;8.50;99.90
37460;DHT22;23318;50.966;5.284;2023-04-06T11:54:36;8.70;99.90
37460;DHT22;23318;50.966;5.284;2023-04-06T11:57:04;8.90;99.90
37460;DHT22;23318;50.966;5.284;2023-04-06T11:59:33;9.00;99.90
37460;DHT22;23318;50.966;5.284;2023-04-06T12:02:04;9.20;99.90
37460;DHT22;23318;50.966;5.284;2023-04-06T12:04:31;9.10;99.90
37460;DHT22;23318;50.966;5.284;2023-04-06T12:06:57;9.20;99.90
37460;DHT22;23318;50.966;5.284;2023-04-06T12:09:23;9.50;99.90
37460;DHT22;23318;50.966;5.284;2023-04-06T12:11:49;9.30;99.90
37460;DHT22;23318;50.966;5.284;2023-04-06T12:14:15;9.50;99.90
37460;DHT22;23318;50.966;5.284;2023-04-06T12:16:41;9.90;99.90
37460;DHT22;23318;50.966;5.284;2023-04-06T12:19:09;9.80;99.90
37460;DHT22;23318;50.966;5.284;2023-04-06T12:21:35;9.60;99.90
37460;DHT22;23318;50.966;5.284;2023-04-06T12:24:04;9.80;99.90
37460;DHT22;23318;50.966;5.284;2023-04-06T12:26:31;9.40;99.90
37460;DHT22;23318;50.966;5.284;2023-04-06T12:28:58;9.20;99.90
37460;DHT22;23318;50.966;5.284;2023-04-06T12:31:28;9.30;99.90
37460;DHT22;23318;50.966;5.284;2023-04-06T12:33:54;9.20;99.90
37460;DHT22;23318;50.966;5.284;2023-04-06T12:36:19;9.00;99.90
37460;DHT22;23318;50.966;5.284;2023-04-06T12:38:50;9.00;99.90
37460;DHT22;23318;50.966;5.284;2023-04-06T12:41:16;9.10;99.90
37460;DHT22;23318;50.966;5.284;2023-04-06T12:43:43;9.20;99.90
37460;DHT22;23318;50.966;5.284;2023-04-06T12:46:09;8.90;99.90
37460;DHT22;23318;50.966;5.284;2023-04-06T12:48:35;9.00;99.90
37460;DHT22;23318;50.966;5.284;2023-04-06T12:51:03;8.90;99.90
37460;DHT22;23318;50.966;5.284;2023-04-06T12:53:29;8.70;99.90
37460;DHT22;23318;50.966;5.284;2023-04-06T12:55:57;8.80;99.90
37460;DHT22;23318;50.966;5.284;2023-04-06T12:58:24;9.10;99.90
37460;DHT22;23318;50.966;5.284;2023-04-06T13:00:52;9.10;99.90
37460;DHT22;23318;50.966;5.284;2023-04-06T13:03:21;8.90;99.90
37460;DHT22;23318;50.966;5.284;2023-04-06T13:05:48;8.70;99.90
37460;DHT22;23318;50.966;5.284;2023-04-06T13:08:15;8.60;99.90
37460;DHT22;23318;50.966;5.284;2023-04-06T13:10:47;8.80;99.90
37460;DHT22;23318;50.966;5.284;2023-04-06T13:13:16;8.80;99.90
37460;DHT22;23318;50.966;5.284;2023-04-06T13:15:42;9.10;99.90
37460;DHT22;23318;50.966;5.284;2023-04-06T13:18:09;9.10;99.90
37460;DHT22;23318;50.966;5.284;2023-04-06T13:20:35;9.30;99.90
37460;DHT22;23318;50.966;5.284;2023-04-06T13:23:01;9.20;99.90
37460;DHT22;23318;50.966;5.284;2023-04-06T13:25:27;9.00;99.90
37460;DHT22;23318;50.966;5.284;2023-04-06T13:27:54;9.10;99.90
37460;DHT22;23318;50.966;5.284;2023-04-06T13:30:20;9.20;99.90
37460;DHT22;23318;50.966;5.284;2023-04-06T13:32:46;9.30;99.90
37460;DHT22;23318;50.966;5.284;2023-04-06T13:35:11;9.20;99.90
37460;DHT22;23318;50.966;5.284;2023-04-06T13:37:37;9.20;99.90
37460;DHT22;23318;50.966;5.284;2023-04-06T13:40:03;9.20;99.90
37460;DHT22;23318;50.966;5.284;2023-04-06T13:42:32;9.30;99.90
37460;DHT22;23318;50.966;5.284;2023-04-06T13:45:00;9.20;99.90
37460;DHT22;23318;50.966;5.284;2023-04-06T13:47:26;9.30;99.90
37460;DHT22;23318;50.966;5.284;2023-04-06T13:49:53;9.20;99.90
37460;DHT22;23318;50.966;5.284;2023-04-06T13:52:19;9.40;99.90
37460;DHT22;23318;50.966;5.284;2023-04-06T13:54:46;9.60;99.90
37460;DHT22;23318;50.966;5.284;2023-04-06T13:57:12;9.70;99.90
37460;DHT22;23318;50.966;5.284;2023-04-06T13:59:38;9.70;99.90
37460;DHT22;23318;50.966;5.284;2023-04-06T14:02:05;9.60;99.90
37460;DHT22;23318;50.966;5.284;2023-04-06T14:04:32;9.70;99.90
37460;DHT22;23318;50.966;5.284;2023-04-06T14:06:58;9.60;99.90
37460;DHT22;23318;50.966;5.284;2023-04-06T14:09:24;9.40;99.90
37460;DHT22;23318;50.966;5.284;2023-04-06T14:11:50;9.60;99.90
37460;DHT22;23318;50.966;5.284;2023-04-06T14:14:16;9.60;99.90
37460;DHT22;23318;50.966;5.284;2023-04-06T14:16:43;9.80;99.90
37460;DHT22;23318;50.966;5.284;2023-04-06T14:19:10;9.50;99.90
37460;DHT22;23318;50.966;5.284;2023-04-06T14:21:38;9.50;99.90
37460;DHT22;23318;50.966;5.284;2023-04-06T14:24:07;9.40;99.90
37460;DHT22;23318;50.966;5.284;2023-04-06T14:26:38;9.50;99.90
37460;DHT22;23318;50.966;5.284;2023-04-06T14:29:05;9.50;99.90
37460;DHT22;23318;50.966;5.284;2023-04-06T14:31:31;9.40;99.90
37460;DHT22;23318;50.966;5.284;2023-04-06T14:33:57;9.20;99.90
37460;DHT22;23318;50.966;5.284;2023-04-06T14:36:23;9.10;99.90
37460;DHT22;23318;50.966;5.284;2023-04-06T14:38:49;9.00;99.90
37460;DHT22;23318;50.966;5.284;2023-04-06T14:41:18;9.10;99.90
37460;DHT22;23318;50.966;5.284;2023-04-06T14:43:46;9.00;99.90
37460;DHT22;23318;50.966;5.284;2023-04-06T14:46:11;9.10;99.90
37460;DHT22;23318;50.966;5.284;2023-04-06T14:48:37;9.00;99.90
37460;DHT22;23318;50.966;5.284;2023-04-06T14:51:03;9.10;99.90
37460;DHT22;23318;50.966;5.284;2023-04-06T14:53:29;9.10;99.90
37460;DHT22;23318;50.966;5.284;2023-04-06T14:55:55;9.40;99.90
37460;DHT22;23318;50.966;5.284;2023-04-06T14:58:22;9.30;99.90
37460;DHT22;23318;50.966;5.284;2023-04-06T15:00:48;9.50;99.90
37460;DHT22;23318;50.966;5.284;2023-04-06T15:03:14;9.50;99.90
37460;DHT22;23318;50.966;5.284;2023-04-06T15:05:41;9.60;99.90
37460;DHT22;23318;50.966;5.284;2023-04-06T15:08:08;9.50;99.90
37460;DHT22;23318;50.966;5.284;2023-04-06T15:10:39;9.40;99.90
37460;DHT22;23318;50.966;5.284;2023-04-06T15:13:05;9.30;99.90
37460;DHT22;23318;50.966;5.284;2023-04-06T15:15:31;9.30;99.90
37460;DHT22;23318;50.966;5.284;2023-04-06T15:17:57;9.40;99.90
37460;DHT22;23318;50.966;5.284;2023-04-06T15:20:22;9.50;99.90
37460;DHT22;23318;50.966;5.284;2023-04-06T15:22:48;9.40;99.90
37460;DHT22;23318;50.966;5.284;2023-04-06T15:25:14;9.50;99.90
37460;DHT22;23318;50.966;5.284;2023-04-06T15:27:39;9.50;99.90
37460;DHT22;23318;50.966;5.284;2023-04-06T15:30:06;9.50;99.90
37460;DHT22;23318;50.966;5.284;2023-04-06T15:32:31;9.40;99.90
37460;DHT22;23318;50.966;5.284;2023-04-06T15:34:58;9.00;99.90
37460;DHT22;23318;50.966;5.284;2023-04-06T15:37:23;8.80;99.90
37460;DHT22;23318;50.966;5.284;2023-04-06T15:39:49;8.80;99.90
37460;DHT22;23318;50.966;5.284;2023-04-06T15:42:15;9.00;99.90
37460;DHT22;23318;50.966;5.284;2023-04-06T15:44:41;8.90;99.90
37460;DHT22;23318;50.966;5.284;2023-04-06T15:47:07;9.10;99.90
37460;DHT22;23318;50.966;5.284;2023-04-06T15:49:32;9.30;99.90
37460;DHT22;23318;50.966;5.284;2023-04-06T15:51:59;9.20;99.90
37460;DHT22;23318;50.966;5.284;2023-04-06T15:54:25;9.40;99.90
37460;DHT22;23318;50.966;5.284;2023-04-06T15:56:51;9.50;99.90
37460;DHT22;23318;50.966;5.284;2023-04-06T15:59:16;9.40;99.90